Airfield :
LOGIN :

Register | Disclaimer

   EN    FR    IT 

 










Legend :    VFR   Marginal VFR   IFR   Intensive IFR   Very Intensive IFR
Visi :
Ceiling :
>= 8 km
>= 3000ft
5 to 8 km
1000 to 3000 ft
1500m to 5 km
500 to 1000 ft
800 to 1500m
200 to 500 ft
< 800m
< 200 ft
Symbols :   Thunderstorms  Fog  Heavy snow  Heavy precipitations  Wind > 20 kt
SIGMETs :     Misc.  Thunderstorms  Icing  Turbulence  Mountain Waves  Volcanic Ashes






- Airport Elevation : 46 ft
- IATA code : PAF


LPMT - Montijo Air Base

CURRENT METAR :
  • 281900Z 23011KT 9999 FEW018 19/14 Q1011

EXPIRED METARs :
  • 281800Z 24011KT CAVOK 21/15 Q1011
  • 281700Z 24009KT CAVOK 22/16 Q1011

TAF TAF LPMT
Valid from the 28 at 18:00 until the 29 at 18:00 UTC


281702Z 2818/2918 23012KT CAVOK
BECMG 2818/2820 21005KT SCT025
PROB40 2900/2908 2000 BR BKN004
TEMPO 2908/2918 BKN022
BECMG 2910/2912 23010KT
TEMPO 2913/2918 24012G22KT



MET'MAP, your aeronautical weather chart ! - Copyright ORBIFLY December 2007 - Disclaimer

ORBIFLY MET'MAP TEAM :

Programming & Development : Alexandra Zaïnal
Original concept : Baudouin d'Aumeries
Technical & hardware support : Manuel Goepfert
Assistance : Marc-Olivier Méhu

Contact : metmap@orbifly.com




SOURCES & CREDITS :

   NOAA